createdAt,value
2023-01-17T00:00:27.882Z,4.36
2023-01-17T00:01:27.800Z,4.37
2023-01-17T00:02:27.809Z,4.37
2023-01-17T00:03:27.886Z,4.39
2023-01-17T00:04:27.763Z,4.40
2023-01-17T00:05:27.751Z,4.40
2023-01-17T00:06:27.763Z,4.39
2023-01-17T00:07:27.730Z,4.39
2023-01-17T00:08:27.732Z,4.40
2023-01-17T00:09:27.719Z,4.44
2023-01-17T00:10:27.701Z,4.46
2023-01-17T00:11:27.690Z,4.47
2023-01-17T00:12:27.691Z,4.50
2023-01-17T00:13:27.730Z,4.50
2023-01-17T00:14:27.661Z,4.47
2023-01-17T00:15:27.652Z,4.50
2023-01-17T00:16:27.656Z,4.47
2023-01-17T00:17:27.652Z,4.50
2023-01-17T00:18:27.620Z,4.47
2023-01-17T00:19:27.605Z,4.50
2023-01-17T00:20:27.595Z,4.50
2023-01-17T00:21:27.600Z,4.47
2023-01-17T00:22:27.568Z,4.50
2023-01-17T00:23:27.592Z,4.51
2023-01-17T00:24:27.545Z,4.47
2023-01-17T00:25:27.563Z,4.47
2023-01-17T00:26:27.522Z,4.47
2023-01-17T00:27:27.529Z,4.46
2023-01-17T00:28:27.500Z,4.42
2023-01-17T00:29:28.241Z,4.40
2023-01-17T00:30:27.483Z,4.37
2023-01-17T00:31:27.651Z,4.34
2023-01-17T00:32:27.464Z,4.33
2023-01-17T00:33:27.470Z,4.32
2023-01-17T00:34:27.463Z,4.29
2023-01-17T00:35:27.494Z,4.26
2023-01-17T00:36:27.443Z,4.28
2023-01-17T00:37:27.409Z,4.28
2023-01-17T00:38:27.403Z,4.28
2023-01-17T00:39:27.420Z,4.28
2023-01-17T00:40:27.378Z,4.26
2023-01-17T00:41:27.392Z,4.26
2023-01-17T00:42:27.352Z,4.28
2023-01-17T00:43:27.352Z,4.25
2023-01-17T00:44:27.333Z,4.28
2023-01-17T00:45:27.327Z,4.29
2023-01-17T00:46:27.374Z,4.32
2023-01-17T00:47:27.336Z,4.32
2023-01-17T00:48:27.291Z,4.34
2023-01-17T00:49:27.285Z,4.33
2023-01-17T00:50:27.263Z,4.33
2023-01-17T00:51:27.251Z,4.36
2023-01-17T00:52:27.272Z,4.37
2023-01-17T00:53:27.258Z,4.37
2023-01-17T00:54:27.240Z,4.40
2023-01-17T00:55:27.219Z,4.43
2023-01-17T00:56:27.205Z,4.42
2023-01-17T00:57:27.237Z,4.44
2023-01-17T00:58:27.173Z,4.44
2023-01-17T00:59:27.175Z,4.44
2023-01-17T01:00:27.153Z,4.46
2023-01-17T01:01:27.281Z,4.50
2023-01-17T01:02:28.546Z,4.52
2023-01-17T01:03:27.167Z,4.51
2023-01-17T01:04:27.114Z,4.52
2023-01-17T01:05:27.102Z,4.54
2023-01-17T01:06:27.108Z,4.55
2023-01-17T01:07:27.084Z,4.58
2023-01-17T01:08:27.071Z,4.57
2023-01-17T01:09:27.089Z,4.57
2023-01-17T01:10:27.055Z,4.57
2023-01-17T01:11:27.033Z,4.57
2023-01-17T01:12:27.056Z,4.58
2023-01-17T01:13:27.027Z,4.58
2023-01-17T01:14:27.015Z,4.58
2023-01-17T01:15:26.996Z,4.59
2023-01-17T01:16:27.017Z,4.58
2023-01-17T01:17:27.004Z,4.58
2023-01-17T01:18:26.954Z,4.58
2023-01-17T01:19:26.957Z,4.59
2023-01-17T01:20:26.941Z,4.59
2023-01-17T01:21:26.943Z,4.59
2023-01-17T01:22:26.914Z,4.61
2023-01-17T01:23:26.940Z,4.62
2023-01-17T01:24:26.891Z,4.58
2023-01-17T01:25:26.890Z,4.59
2023-01-17T01:26:26.886Z,4.59
2023-01-17T01:27:26.881Z,4.59
2023-01-17T01:28:26.853Z,4.57
2023-01-17T01:29:26.892Z,4.57
2023-01-17T01:30:26.835Z,4.55
2023-01-17T01:31:26.873Z,4.55
2023-01-17T01:32:26.810Z,4.54
2023-01-17T01:33:26.819Z,4.52
2023-01-17T01:34:26.792Z,4.52
2023-01-17T01:35:26.811Z,4.51
2023-01-17T01:36:26.771Z,4.52
2023-01-17T01:37:26.770Z,4.51
2023-01-17T01:38:26.742Z,4.51
2023-01-17T01:39:26.748Z,4.50
2023-01-17T01:40:26.745Z,4.51
2023-01-17T01:41:26.722Z,4.51
2023-01-17T01:42:26.700Z,4.50
2023-01-17T01:43:26.704Z,4.47
2023-01-17T01:44:26.702Z,4.50
2023-01-17T01:45:26.765Z,4.46
2023-01-17T01:46:26.655Z,4.46
2023-01-17T01:47:26.649Z,4.46
2023-01-17T01:48:26.639Z,4.47
2023-01-17T01:49:27.338Z,4.46
2023-01-17T01:50:26.632Z,4.44
2023-01-17T01:51:26.621Z,4.40
2023-01-17T01:52:26.594Z,4.39
2023-01-17T01:53:26.602Z,4.36
2023-01-17T01:54:26.590Z,4.36
2023-01-17T01:55:26.584Z,4.37
2023-01-17T01:56:26.570Z,4.37
2023-01-17T01:57:26.534Z,4.36
2023-01-17T01:58:26.521Z,4.39
2023-01-17T01:59:26.528Z,4.36
2023-01-17T02:00:26.534Z,4.37
2023-01-17T02:01:26.606Z,4.37
2023-01-17T02:02:26.492Z,4.34
2023-01-17T02:03:26.517Z,4.36
2023-01-17T02:04:26.459Z,4.34
2023-01-17T02:05:26.468Z,4.37
2023-01-17T02:06:26.434Z,4.34
2023-01-17T02:07:26.434Z,4.36
2023-01-17T02:08:26.444Z,4.34
2023-01-17T02:09:26.433Z,4.34
2023-01-17T02:10:26.394Z,4.34
2023-01-17T02:11:26.400Z,4.34
2023-01-17T02:12:26.371Z,4.34
2023-01-17T02:13:26.414Z,4.33
2023-01-17T02:14:26.354Z,4.33
2023-01-17T02:15:26.341Z,4.33
2023-01-17T02:16:26.360Z,4.32
2023-01-17T02:17:26.333Z,4.33
2023-01-17T02:18:26.313Z,4.32
2023-01-17T02:19:26.324Z,4.32
2023-01-17T02:20:26.294Z,4.33
2023-01-17T02:21:26.281Z,4.32
2023-01-17T02:22:26.276Z,4.26
2023-01-17T02:23:26.273Z,4.25
2023-01-17T02:24:26.253Z,4.24
2023-01-17T02:25:26.252Z,4.22
2023-01-17T02:26:26.223Z,4.21
2023-01-17T02:27:26.211Z,4.18
2023-01-17T02:28:26.206Z,4.16
2023-01-17T02:29:26.203Z,4.15
2023-01-17T02:30:26.212Z,4.10
2023-01-17T02:31:26.256Z,4.08
2023-01-17T02:32:26.162Z,4.07
2023-01-17T02:33:27.108Z,4.06
2023-01-17T02:34:26.157Z,4.03
2023-01-17T02:35:26.151Z,4.03
2023-01-17T02:36:26.122Z,4.00
2023-01-17T02:37:26.114Z,3.98
2023-01-17T02:38:26.109Z,3.97
2023-01-17T02:39:26.090Z,3.96
2023-01-17T02:40:26.098Z,3.89
2023-01-17T02:41:26.085Z,3.90
2023-01-17T02:42:26.059Z,3.89
2023-01-17T02:43:26.044Z,3.88
2023-01-17T02:44:26.031Z,3.90
2023-01-17T02:45:26.060Z,3.89
2023-01-17T02:46:26.047Z,3.89
2023-01-17T02:47:26.000Z,3.86
2023-01-17T02:48:25.984Z,3.89
2023-01-17T02:49:25.980Z,3.88
2023-01-17T02:50:25.964Z,3.85
2023-01-17T02:51:25.968Z,3.83
2023-01-17T02:52:25.972Z,3.82
2023-01-17T02:53:25.941Z,3.82
2023-01-17T02:54:25.923Z,3.83
2023-01-17T02:55:25.933Z,3.80
2023-01-17T02:56:25.933Z,3.80
2023-01-17T02:57:25.933Z,3.79
2023-01-17T02:58:25.882Z,3.78
2023-01-17T02:59:25.868Z,3.78
2023-01-17T03:00:25.859Z,3.72
2023-01-17T03:01:26.025Z,3.72
2023-01-17T03:02:25.851Z,3.72
2023-01-17T03:03:25.870Z,3.71
2023-01-17T03:04:25.830Z,3.67
2023-01-17T03:05:25.810Z,3.64
2023-01-17T03:06:25.822Z,3.62
2023-01-17T03:07:25.799Z,3.62
2023-01-17T03:08:25.809Z,3.62
2023-01-17T03:09:25.793Z,3.58
2023-01-17T03:10:25.748Z,3.57
2023-01-17T03:11:25.733Z,3.57
2023-01-17T03:12:25.728Z,3.58
2023-01-17T03:13:25.754Z,3.58
2023-01-17T03:14:25.717Z,3.58
2023-01-17T03:15:25.703Z,3.58
2023-01-17T03:16:25.722Z,3.57
2023-01-17T03:17:25.687Z,3.57
2023-01-17T03:18:25.701Z,3.54
2023-01-17T03:19:25.652Z,3.53
2023-01-17T03:20:25.657Z,3.53
2023-01-17T03:21:25.629Z,3.50
2023-01-17T03:22:25.640Z,3.49
2023-01-17T03:23:25.652Z,3.46
2023-01-17T03:24:25.601Z,3.44
2023-01-17T03:25:25.589Z,3.42
2023-01-17T03:26:25.597Z,3.40
2023-01-17T03:27:25.577Z,3.36
2023-01-17T03:28:25.586Z,3.36
2023-01-17T03:29:25.551Z,3.31
2023-01-17T03:30:25.592Z,3.31
2023-01-17T03:31:25.530Z,3.30
2023-01-17T03:32:25.517Z,3.25
2023-01-17T03:33:25.538Z,3.23
2023-01-17T03:34:25.491Z,3.21
2023-01-17T03:35:25.520Z,3.16
2023-01-17T03:36:25.479Z,3.15
2023-01-17T03:37:25.462Z,3.13
2023-01-17T03:38:25.460Z,3.12
2023-01-17T03:39:25.463Z,3.09
2023-01-17T03:40:25.433Z,3.09
2023-01-17T03:41:25.439Z,3.09
2023-01-17T03:42:25.411Z,3.06
2023-01-17T03:43:25.421Z,3.07
2023-01-17T03:44:25.383Z,3.07
2023-01-17T03:45:25.381Z,3.10
2023-01-17T03:46:25.400Z,3.09
2023-01-17T03:47:25.350Z,3.09
2023-01-17T03:48:25.342Z,3.10
2023-01-17T03:49:25.329Z,3.07
2023-01-17T03:50:25.326Z,3.06
2023-01-17T03:51:25.350Z,3.07
2023-01-17T03:52:25.293Z,3.09
2023-01-17T03:53:25.324Z,3.09
2023-01-17T03:54:25.273Z,3.07
2023-01-17T03:55:25.280Z,3.07
2023-01-17T03:56:25.264Z,3.10
2023-01-17T03:57:25.264Z,3.10
2023-01-17T03:58:25.244Z,3.09
2023-01-17T03:59:25.221Z,3.07
2023-01-17T04:00:25.212Z,3.05
2023-01-17T04:01:25.341Z,3.05
2023-01-17T04:02:25.261Z,2.98
2023-01-17T04:03:25.181Z,2.94
2023-01-17T04:04:25.171Z,2.84
2023-01-17T04:05:25.160Z,2.73
2023-01-17T04:06:25.163Z,2.71
2023-01-17T04:07:25.140Z,2.67
2023-01-17T04:08:25.151Z,2.66
2023-01-17T04:09:25.132Z,2.64
2023-01-17T04:10:25.106Z,2.69
2023-01-17T04:11:25.103Z,2.66
2023-01-17T04:12:25.109Z,2.66
2023-01-17T04:13:25.120Z,2.64
2023-01-17T04:14:25.063Z,2.63
2023-01-17T04:15:25.052Z,2.61
2023-01-17T04:16:46.108Z,2.64
2023-01-17T04:17:25.021Z,2.64
2023-01-17T04:18:25.059Z,2.64
2023-01-17T04:19:25.002Z,2.67
2023-01-17T04:20:25.012Z,2.66
2023-01-17T04:21:24.980Z,2.66
2023-01-17T04:22:24.971Z,2.67
2023-01-17T04:23:24.983Z,2.66
2023-01-17T04:24:24.979Z,2.64
2023-01-17T04:25:24.952Z,2.64
2023-01-17T04:26:24.939Z,2.64
2023-01-17T04:27:24.920Z,2.59
2023-01-17T04:28:24.920Z,2.61
2023-01-17T04:29:24.888Z,2.59
2023-01-17T04:30:24.913Z,2.58
2023-01-17T04:31:24.906Z,2.56
2023-01-17T04:32:24.867Z,2.58
2023-01-17T04:33:24.854Z,2.58
2023-01-17T04:34:24.851Z,2.58
2023-01-17T04:35:24.821Z,2.59
2023-01-17T04:36:24.815Z,2.58
2023-01-17T04:37:24.810Z,2.58
2023-01-17T04:38:24.827Z,2.59
2023-01-17T04:39:24.801Z,2.63
2023-01-17T04:40:24.801Z,2.63
2023-01-17T04:41:24.751Z,2.66
2023-01-17T04:42:24.781Z,2.67
2023-01-17T04:43:24.739Z,2.69
2023-01-17T04:44:24.732Z,2.70
2023-01-17T04:45:24.714Z,2.70
2023-01-17T04:46:24.735Z,2.71
2023-01-17T04:47:24.691Z,2.70
2023-01-17T04:48:24.695Z,2.70
2023-01-17T04:49:24.695Z,2.71
2023-01-17T04:50:24.670Z,2.74
2023-01-17T04:51:24.654Z,2.76
2023-01-17T04:52:24.642Z,2.79
2023-01-17T04:53:24.646Z,2.82
2023-01-17T04:54:24.644Z,2.82
2023-01-17T04:55:24.601Z,2.82
2023-01-17T04:56:24.594Z,2.81
2023-01-17T04:57:24.582Z,2.81
2023-01-17T04:58:24.586Z,2.79
2023-01-17T04:59:24.580Z,2.76
2023-01-17T05:00:24.550Z,2.76
2023-01-17T05:01:24.603Z,2.73
2023-01-17T05:02:24.581Z,2.70
2023-01-17T05:03:24.521Z,2.70
2023-01-17T05:04:24.511Z,2.69
2023-01-17T05:05:24.510Z,2.69
2023-01-17T05:06:24.478Z,2.67
2023-01-17T05:07:24.471Z,2.67
2023-01-17T05:08:24.460Z,2.67
2023-01-17T05:09:24.441Z,2.67
2023-01-17T05:10:24.463Z,2.66
2023-01-17T05:11:24.436Z,2.64
2023-01-17T05:12:24.417Z,2.64
2023-01-17T05:13:24.409Z,2.64
2023-01-17T05:14:24.396Z,2.64
2023-01-17T05:15:24.382Z,2.64
2023-01-17T05:16:24.398Z,2.63
2023-01-17T05:17:24.362Z,2.66
2023-01-17T05:18:24.353Z,2.66
2023-01-17T05:19:24.343Z,2.66
2023-01-17T05:20:24.322Z,2.66
2023-01-17T05:21:24.331Z,2.66
2023-01-17T05:22:24.309Z,2.67
2023-01-17T05:23:24.298Z,2.67
2023-01-17T05:24:24.279Z,2.67
2023-01-17T05:25:24.281Z,2.67
2023-01-17T05:26:24.279Z,2.66
2023-01-17T05:27:24.251Z,2.66
2023-01-17T05:28:24.238Z,2.69
2023-01-17T05:29:24.221Z,2.69
2023-01-17T05:30:24.209Z,2.67
2023-01-17T05:31:24.400Z,2.67
2023-01-17T05:32:24.207Z,2.64
2023-01-17T05:33:24.191Z,2.66
2023-01-17T05:34:24.169Z,2.67
2023-01-17T05:35:24.150Z,2.66
2023-01-17T05:36:24.152Z,2.61
2023-01-17T05:37:24.159Z,2.63
2023-01-17T05:38:24.125Z,2.63
2023-01-17T05:39:24.108Z,2.63
2023-01-17T05:40:24.097Z,2.63
2023-01-17T05:41:24.089Z,2.59
2023-01-17T05:42:24.087Z,2.56
2023-01-17T05:43:24.103Z,2.58
2023-01-17T05:44:24.058Z,2.59
2023-01-17T05:45:24.049Z,2.56
2023-01-17T05:46:24.081Z,2.56
2023-01-17T05:47:24.027Z,2.55
2023-01-17T05:48:24.065Z,2.52
2023-01-17T05:49:24.010Z,2.51
2023-01-17T05:50:24.009Z,2.48
2023-01-17T05:51:24.009Z,2.48
2023-01-17T05:52:23.976Z,2.51
2023-01-17T05:53:23.968Z,2.51
2023-01-17T05:54:23.977Z,2.51
2023-01-17T05:55:23.947Z,2.51
2023-01-17T05:56:23.961Z,2.53
2023-01-17T05:57:23.909Z,2.55
2023-01-17T05:58:23.899Z,2.56
2023-01-17T05:59:36.439Z,2.56
2023-01-17T06:00:24.885Z,2.61
2023-01-17T06:01:23.914Z,2.69
2023-01-17T06:02:23.917Z,2.69
2023-01-17T06:03:23.867Z,2.70
2023-01-17T06:04:23.841Z,2.77
2023-01-17T06:05:23.855Z,2.84
2023-01-17T06:06:23.834Z,2.77
2023-01-17T06:07:23.799Z,2.74
2023-01-17T06:08:23.798Z,2.70
2023-01-17T06:09:23.792Z,2.73
2023-01-17T06:10:23.796Z,2.69
2023-01-17T06:11:23.768Z,2.69
2023-01-17T06:12:23.756Z,2.67
2023-01-17T06:13:23.759Z,2.67
2023-01-17T06:14:23.738Z,2.66
2023-01-17T06:15:23.717Z,2.66
2023-01-17T06:16:23.805Z,2.64
2023-01-17T06:17:23.696Z,2.59
2023-01-17T06:18:23.687Z,2.56
2023-01-17T06:19:23.677Z,2.56
2023-01-17T06:20:23.671Z,2.55
2023-01-17T06:21:23.651Z,2.53
2023-01-17T06:22:23.660Z,2.55
2023-01-17T06:23:23.633Z,2.53
2023-01-17T06:24:23.618Z,2.52
2023-01-17T06:25:23.633Z,2.51
2023-01-17T06:26:23.615Z,2.49
2023-01-17T06:27:23.609Z,2.49
2023-01-17T06:28:23.585Z,2.49
2023-01-17T06:29:24.518Z,2.51
2023-01-17T06:30:23.549Z,2.49
2023-01-17T06:31:23.568Z,2.51
2023-01-17T06:32:23.529Z,2.49
2023-01-17T06:33:23.549Z,2.49
2023-01-17T06:34:23.516Z,2.46
2023-01-17T06:35:23.518Z,2.44
2023-01-17T06:36:23.488Z,2.41
2023-01-17T06:37:23.491Z,2.40
2023-01-17T06:38:23.471Z,2.41
2023-01-17T06:39:23.475Z,2.41
2023-01-17T06:40:23.479Z,2.41
2023-01-17T06:41:23.440Z,2.44
2023-01-17T06:42:23.420Z,2.44
2023-01-17T06:43:23.417Z,2.45
2023-01-17T06:44:23.405Z,2.45
2023-01-17T06:45:23.388Z,2.45
2023-01-17T06:46:23.474Z,2.48
2023-01-17T06:47:23.379Z,2.49
2023-01-17T06:48:23.375Z,2.49
2023-01-17T06:49:23.360Z,2.49
2023-01-17T06:50:23.383Z,2.51
2023-01-17T06:51:23.329Z,2.51
2023-01-17T06:52:23.310Z,2.51
2023-01-17T06:53:23.340Z,2.51
2023-01-17T06:54:23.308Z,2.51
2023-01-17T06:55:23.314Z,2.49
2023-01-17T06:56:23.279Z,2.51
2023-01-17T06:57:23.278Z,2.49
2023-01-17T06:58:23.248Z,2.51
2023-01-17T06:59:23.255Z,2.48
2023-01-17T07:00:23.350Z,2.46
2023-01-17T07:01:23.269Z,2.48
2023-01-17T07:02:23.236Z,2.45
2023-01-17T07:03:24.015Z,2.45
2023-01-17T07:04:23.186Z,2.45
2023-01-17T07:05:23.178Z,2.45
2023-01-17T07:06:23.193Z,2.45
2023-01-17T07:07:23.162Z,2.49
2023-01-17T07:08:23.142Z,2.49
2023-01-17T07:09:23.146Z,2.49
2023-01-17T07:10:23.146Z,2.51
2023-01-17T07:11:23.133Z,2.49
2023-01-17T07:12:23.126Z,2.49
2023-01-17T07:13:23.087Z,2.49
2023-01-17T07:14:23.075Z,2.48
2023-01-17T07:15:23.098Z,2.51
2023-01-17T07:16:23.191Z,2.51
2023-01-17T07:17:23.085Z,2.49
2023-01-17T07:18:23.040Z,2.48
2023-01-17T07:19:23.043Z,2.46
2023-01-17T07:20:23.009Z,2.46
2023-01-17T07:21:23.029Z,2.44
2023-01-17T07:22:23.002Z,2.44
2023-01-17T07:23:22.994Z,2.38
2023-01-17T07:24:22.969Z,2.40
2023-01-17T07:25:22.961Z,2.37
2023-01-17T07:26:22.977Z,2.37
2023-01-17T07:27:22.937Z,2.38
2023-01-17T07:28:22.933Z,2.40
2023-01-17T07:29:22.930Z,2.41
2023-01-17T07:30:22.909Z,2.41
2023-01-17T07:31:22.917Z,2.44
2023-01-17T07:32:22.907Z,2.45
2023-01-17T07:33:22.876Z,2.46
2023-01-17T07:34:22.870Z,2.46
2023-01-17T07:35:22.855Z,2.48
2023-01-17T07:36:22.835Z,2.48
2023-01-17T07:37:22.850Z,2.46
2023-01-17T07:38:22.832Z,2.46
2023-01-17T07:39:22.838Z,2.48
2023-01-17T07:40:22.838Z,2.49
2023-01-17T07:41:22.795Z,2.49
2023-01-17T07:42:24.233Z,2.51
2023-01-17T07:43:22.769Z,2.49
2023-01-17T07:44:22.753Z,2.51
2023-01-17T07:45:22.745Z,2.49
2023-01-17T07:46:22.760Z,2.49
2023-01-17T07:47:22.747Z,2.49
2023-01-17T07:48:22.717Z,2.51
2023-01-17T07:49:22.704Z,2.52
2023-01-17T07:50:22.688Z,2.49
2023-01-17T07:51:22.704Z,2.51
2023-01-17T07:52:22.698Z,2.51
2023-01-17T07:53:22.666Z,2.49
2023-01-17T07:54:22.649Z,2.48
2023-01-17T07:55:22.636Z,2.51
2023-01-17T07:56:22.631Z,2.51
2023-01-17T07:57:22.615Z,2.51
2023-01-17T07:58:22.631Z,2.51
2023-01-17T07:59:22.587Z,2.51
2023-01-17T08:00:22.577Z,2.51
2023-01-17T08:01:22.696Z,2.52
2023-01-17T08:02:22.579Z,2.51
2023-01-17T08:03:22.554Z,2.51
2023-01-17T08:04:22.534Z,2.51
2023-01-17T08:05:22.531Z,2.52
2023-01-17T08:06:22.514Z,2.51
2023-01-17T08:07:22.527Z,2.49
2023-01-17T08:08:22.503Z,2.52
2023-01-17T08:09:22.480Z,2.53
2023-01-17T08:10:22.479Z,2.53
2023-01-17T08:11:22.458Z,2.55
2023-01-17T08:12:22.472Z,2.55
2023-01-17T08:13:22.454Z,2.53
2023-01-17T08:14:22.432Z,2.55
2023-01-17T08:15:22.453Z,2.55
2023-01-17T08:16:22.447Z,2.53
2023-01-17T08:17:22.395Z,2.52
2023-01-17T08:18:22.406Z,2.49
2023-01-17T08:19:22.547Z,2.46
2023-01-17T08:20:22.363Z,2.44
2023-01-17T08:21:22.354Z,2.45
2023-01-17T08:22:22.339Z,2.46
2023-01-17T08:23:22.379Z,2.44
2023-01-17T08:24:22.322Z,2.46
2023-01-17T08:25:22.341Z,2.48
2023-01-17T08:26:22.433Z,2.49
2023-01-17T08:27:22.291Z,2.48
2023-01-17T08:28:22.301Z,2.51
2023-01-17T08:29:22.265Z,2.51
2023-01-17T08:30:22.251Z,2.52
2023-01-17T08:31:22.267Z,2.49
2023-01-17T08:32:22.233Z,2.48
2023-01-17T08:33:22.251Z,2.49
2023-01-17T08:34:22.216Z,2.51
2023-01-17T08:35:22.205Z,2.46
2023-01-17T08:36:22.187Z,2.48
2023-01-17T08:37:22.177Z,2.49
2023-01-17T08:38:22.195Z,2.51
2023-01-17T08:39:22.185Z,2.52
2023-01-17T08:40:22.171Z,2.52
2023-01-17T08:41:22.139Z,2.53
2023-01-17T08:42:22.145Z,2.53
2023-01-17T08:43:22.117Z,2.53
2023-01-17T08:44:22.107Z,2.53
2023-01-17T08:45:22.100Z,2.51
2023-01-17T08:46:22.086Z,2.55
2023-01-17T08:47:22.094Z,2.58
2023-01-17T08:48:22.064Z,2.61
2023-01-17T08:49:22.064Z,2.69
2023-01-17T08:50:22.128Z,2.79
2023-01-17T08:51:22.035Z,2.79
2023-01-17T08:52:22.051Z,2.88
2023-01-17T08:53:22.013Z,2.84
2023-01-17T08:54:21.995Z,2.79
2023-01-17T08:55:22.010Z,2.79
2023-01-17T08:56:21.984Z,2.76
2023-01-17T08:57:22.007Z,2.73
2023-01-17T08:58:21.946Z,2.70
2023-01-17T08:59:21.948Z,2.71
2023-01-17T09:00:22.033Z,2.70
2023-01-17T09:01:22.056Z,2.64
2023-01-17T09:02:21.960Z,2.63
2023-01-17T09:03:21.904Z,2.59
2023-01-17T09:04:21.941Z,2.58
2023-01-17T09:05:21.884Z,2.63
2023-01-17T09:06:21.876Z,2.61
2023-01-17T09:07:21.856Z,2.64
2023-01-17T09:08:21.873Z,2.74
2023-01-17T09:09:21.840Z,2.73
2023-01-17T09:10:21.842Z,2.74
2023-01-17T09:11:21.822Z,2.85
2023-01-17T09:12:21.805Z,2.91
2023-01-17T09:13:21.805Z,3.06
2023-01-17T09:14:21.803Z,3.18
2023-01-17T09:15:21.776Z,3.18
2023-01-17T09:16:21.789Z,3.09
2023-01-17T09:17:21.747Z,3.25
2023-01-17T09:18:21.743Z,3.18
2023-01-17T09:19:21.753Z,3.16
2023-01-17T09:20:21.726Z,3.10
2023-01-17T09:21:21.717Z,3.09
2023-01-17T09:22:21.695Z,3.18
2023-01-17T09:23:21.687Z,3.13
2023-01-17T09:24:21.679Z,3.21
2023-01-17T09:25:21.691Z,3.33
2023-01-17T09:26:21.655Z,3.36
2023-01-17T09:27:21.638Z,3.40
2023-01-17T09:28:21.634Z,3.39
2023-01-17T09:29:21.625Z,3.70
2023-01-17T09:30:21.627Z,3.92
2023-01-17T09:31:21.631Z,4.08
2023-01-17T09:32:21.612Z,4.03
2023-01-17T09:33:21.585Z,3.89
2023-01-17T09:34:21.564Z,3.60
2023-01-17T09:35:21.557Z,3.42
2023-01-17T09:36:21.552Z,3.52
2023-01-17T09:37:21.534Z,3.49
2023-01-17T09:38:21.547Z,3.33
2023-01-17T09:39:21.520Z,3.33
2023-01-17T09:40:21.651Z,3.39
2023-01-17T09:41:21.506Z,3.36
2023-01-17T09:42:21.507Z,3.31
2023-01-17T09:43:21.475Z,3.28
2023-01-17T09:44:21.465Z,3.21
2023-01-17T09:45:21.460Z,3.27
2023-01-17T09:46:21.444Z,3.42
2023-01-17T09:47:21.492Z,3.46
2023-01-17T09:48:21.440Z,3.49
2023-01-17T09:49:21.404Z,3.65
2023-01-17T09:50:21.394Z,3.79
2023-01-17T09:51:21.387Z,3.85
2023-01-17T09:52:21.416Z,3.83
2023-01-17T09:53:21.370Z,4.14
2023-01-17T09:54:21.346Z,4.01
2023-01-17T09:55:21.344Z,4.25
2023-01-17T09:56:21.336Z,4.73
2023-01-17T09:57:21.346Z,4.16
2023-01-17T09:58:21.312Z,3.86
2023-01-17T09:59:21.297Z,3.58
2023-01-17T10:00:21.302Z,3.42
2023-01-17T10:01:21.441Z,3.21
2023-01-17T10:02:21.492Z,3.12
2023-01-17T10:03:21.354Z,3.05
2023-01-17T10:04:21.344Z,3.03
2023-01-17T10:05:21.235Z,3.00
2023-01-17T10:06:21.217Z,2.92
2023-01-17T10:07:21.324Z,2.94
2023-01-17T10:08:21.195Z,2.97
2023-01-17T10:09:21.184Z,3.06
2023-01-17T10:10:21.185Z,3.03
2023-01-17T10:11:21.173Z,3.06
2023-01-17T10:12:21.189Z,3.10
2023-01-17T10:13:21.172Z,3.07
2023-01-17T10:14:21.164Z,2.98
2023-01-17T10:15:21.136Z,2.94
2023-01-17T10:16:21.145Z,2.94
2023-01-17T10:17:21.114Z,2.91
2023-01-17T10:18:29.559Z,2.89
2023-01-17T10:19:22.106Z,2.82
2023-01-17T10:20:21.085Z,2.79
2023-01-17T10:21:21.059Z,2.77
2023-01-17T10:22:21.045Z,2.76
2023-01-17T10:23:21.036Z,2.77
2023-01-17T10:24:21.027Z,2.77
2023-01-17T10:25:21.121Z,2.77
2023-01-17T10:26:21.035Z,2.84
2023-01-17T10:27:21.008Z,2.87
2023-01-17T10:28:20.987Z,2.84
2023-01-17T10:29:21.335Z,2.88
2023-01-17T10:30:20.986Z,2.88
2023-01-17T10:31:20.958Z,2.92
2023-01-17T10:32:20.945Z,2.98
2023-01-17T10:33:20.955Z,3.02
2023-01-17T10:34:20.934Z,3.12
2023-01-17T10:35:20.934Z,3.18
2023-01-17T10:36:20.901Z,3.16
2023-01-17T10:37:20.967Z,3.27
2023-01-17T10:38:20.880Z,3.71
2023-01-17T10:39:20.872Z,4.12
2023-01-17T10:40:20.862Z,4.16
2023-01-17T10:41:20.865Z,4.47
2023-01-17T10:42:20.831Z,4.50
2023-01-17T10:43:20.827Z,5.13
2023-01-17T10:44:20.815Z,5.01
2023-01-17T10:45:20.835Z,4.52
2023-01-17T10:46:20.840Z,4.24
2023-01-17T10:47:20.785Z,4.10
2023-01-17T10:48:23.141Z,4.03
2023-01-17T10:49:20.751Z,4.06
2023-01-17T10:50:20.753Z,3.96
2023-01-17T10:51:20.736Z,3.88
2023-01-17T10:52:20.758Z,3.88
2023-01-17T10:53:20.716Z,3.75
2023-01-17T10:54:20.712Z,3.71
2023-01-17T10:55:20.697Z,3.80
2023-01-17T10:56:20.678Z,4.06
2023-01-17T10:57:20.693Z,4.07
2023-01-17T10:58:20.664Z,3.98
2023-01-17T10:59:20.646Z,3.96
2023-01-17T11:00:20.644Z,4.92
2023-01-17T11:01:20.845Z,5.74
2023-01-17T11:02:20.729Z,6.63
2023-01-17T11:03:20.605Z,6.66
2023-01-17T11:04:20.614Z,6.25
2023-01-17T11:05:20.582Z,6.33
2023-01-17T11:06:20.578Z,6.07
2023-01-17T11:07:20.565Z,5.98
2023-01-17T11:08:20.565Z,6.36
2023-01-17T11:09:20.567Z,6.51
2023-01-17T11:10:20.528Z,6.83
2023-01-17T11:11:20.524Z,6.72
2023-01-17T11:12:20.513Z,6.94
2023-01-17T11:13:20.495Z,7.31
2023-01-17T11:14:20.508Z,7.07
2023-01-17T11:15:20.476Z,6.90
2023-01-17T11:16:20.473Z,6.28
2023-01-17T11:17:20.455Z,6.44
2023-01-17T11:18:20.445Z,5.92
2023-01-17T11:19:20.432Z,5.92
2023-01-17T11:20:20.445Z,6.87
2023-01-17T11:21:20.406Z,7.69
2023-01-17T11:22:20.400Z,7.67
2023-01-17T11:23:20.391Z,7.53
2023-01-17T11:24:20.399Z,7.53
2023-01-17T11:25:20.395Z,7.63
2023-01-17T11:26:20.353Z,8.20
2023-01-17T11:27:20.337Z,8.86
2023-01-17T11:28:20.326Z,9.50
2023-01-17T11:29:20.316Z,9.32
2023-01-17T11:30:20.320Z,8.73
2023-01-17T11:31:20.348Z,8.17
2023-01-17T11:32:20.291Z,7.47
2023-01-17T11:33:20.279Z,6.90
2023-01-17T11:34:20.285Z,6.11
2023-01-17T11:35:20.254Z,5.53
2023-01-17T11:36:20.263Z,5.28
2023-01-17T11:37:20.247Z,5.16
2023-01-17T11:38:20.219Z,5.04
2023-01-17T11:39:20.219Z,4.96
2023-01-17T11:40:20.205Z,5.01
2023-01-17T11:41:20.227Z,5.12
2023-01-17T11:42:20.180Z,5.19
2023-01-17T11:43:20.196Z,5.55
2023-01-17T11:44:20.184Z,5.49
2023-01-17T11:45:20.144Z,5.30
2023-01-17T11:46:20.248Z,5.09
2023-01-17T11:47:20.121Z,4.92
2023-01-17T11:48:20.109Z,4.76
2023-01-17T11:49:20.118Z,4.76
2023-01-17T11:50:20.100Z,4.72
2023-01-17T11:51:20.094Z,4.70
2023-01-17T11:52:20.065Z,4.67
2023-01-17T11:53:20.079Z,4.76
2023-01-17T11:54:20.046Z,4.86
2023-01-17T11:55:20.028Z,4.84
2023-01-17T11:56:20.028Z,4.88
2023-01-17T11:57:20.022Z,4.84
2023-01-17T11:58:20.026Z,4.72
2023-01-17T11:59:19.987Z,4.62
2023-01-17T12:00:19.976Z,4.51
2023-01-17T12:01:20.016Z,4.55
2023-01-17T12:02:19.964Z,4.58
2023-01-17T12:03:19.967Z,4.57
2023-01-17T12:04:19.938Z,4.61
2023-01-17T12:05:20.018Z,4.59
2023-01-17T12:06:19.919Z,4.54
2023-01-17T12:07:19.894Z,4.55
2023-01-17T12:08:19.957Z,4.64
2023-01-17T12:09:19.887Z,4.79
2023-01-17T12:10:19.892Z,4.84
2023-01-17T12:11:19.863Z,4.92
2023-01-17T12:12:19.839Z,4.84
2023-01-17T12:13:19.839Z,4.95
2023-01-17T12:14:19.845Z,5.19
2023-01-17T12:15:19.810Z,5.28
2023-01-17T12:16:19.854Z,5.27
2023-01-17T12:17:19.786Z,5.22
2023-01-17T12:18:19.776Z,5.31
2023-01-17T12:19:19.770Z,5.25
2023-01-17T12:20:20.756Z,5.59
2023-01-17T12:21:19.747Z,5.37
2023-01-17T12:22:19.756Z,5.41
2023-01-17T12:23:19.729Z,5.78
2023-01-17T12:24:19.711Z,5.73
2023-01-17T12:25:19.700Z,5.86
2023-01-17T12:26:19.716Z,6.18
2023-01-17T12:27:19.709Z,6.01
2023-01-17T12:28:19.676Z,5.86
2023-01-17T12:29:19.660Z,5.71
2023-01-17T12:30:19.729Z,5.53
2023-01-17T12:31:19.655Z,5.59
2023-01-17T12:32:19.667Z,5.46
2023-01-17T12:33:19.624Z,5.73
2023-01-17T12:34:19.609Z,6.58
2023-01-17T12:35:19.618Z,7.24
2023-01-17T12:36:19.589Z,7.47
2023-01-17T12:37:19.581Z,7.47
2023-01-17T12:38:31.709Z,7.67
2023-01-17T12:39:20.547Z,8.53
2023-01-17T12:40:19.530Z,8.88
2023-01-17T12:41:19.536Z,8.96
2023-01-17T12:42:19.510Z,9.28
2023-01-17T12:43:19.529Z,10.10
2023-01-17T12:44:19.504Z,9.68
2023-01-17T12:45:19.481Z,8.78
2023-01-17T12:46:19.549Z,8.44
2023-01-17T12:47:19.458Z,8.18
2023-01-17T12:48:19.483Z,7.92
2023-01-17T12:49:19.439Z,7.59
2023-01-17T12:50:19.420Z,7.35
2023-01-17T12:51:19.439Z,7.34
2023-01-17T12:52:19.408Z,8.26
2023-01-17T12:53:19.391Z,8.68
2023-01-17T12:54:19.380Z,9.12
2023-01-17T12:55:19.368Z,9.39
2023-01-17T12:56:19.391Z,8.54
2023-01-17T12:57:19.351Z,7.71
2023-01-17T12:58:19.340Z,7.01
2023-01-17T12:59:19.333Z,6.68
2023-01-17T13:00:19.329Z,6.50
2023-01-17T13:01:19.431Z,6.26
2023-01-17T13:02:19.354Z,6.13
2023-01-17T13:03:19.295Z,5.98
2023-01-17T13:04:19.279Z,6.18
2023-01-17T13:05:19.269Z,6.89
2023-01-17T13:06:19.251Z,6.91
2023-01-17T13:07:19.262Z,6.68
2023-01-17T13:08:19.238Z,6.66
2023-01-17T13:09:19.224Z,6.46
2023-01-17T13:10:19.224Z,6.19
2023-01-17T13:11:19.208Z,5.81
2023-01-17T13:12:19.210Z,5.64
2023-01-17T13:13:19.170Z,5.66
2023-01-17T13:14:19.170Z,5.64
2023-01-17T13:15:19.150Z,5.48
2023-01-17T13:16:19.201Z,5.45
2023-01-17T13:17:19.158Z,5.55
2023-01-17T13:18:19.120Z,5.45